createdAt,value
2023-04-22T00:00:23.832Z,1094.00
2023-04-22T00:01:22.824Z,1086.00
2023-04-22T00:02:22.882Z,1093.00
2023-04-22T00:03:23.091Z,1074.00
2023-04-22T00:04:22.973Z,1088.00
2023-04-22T00:05:23.057Z,1079.00
2023-04-22T00:06:22.843Z,1078.00
2023-04-22T00:07:23.872Z,1099.00
2023-04-22T00:08:23.856Z,1101.00
2023-04-22T00:09:23.892Z,1087.00
2023-04-22T00:10:23.847Z,1086.00
2023-04-22T00:11:23.895Z,1084.00
2023-04-22T00:12:23.855Z,1081.00
2023-04-22T00:13:23.831Z,1077.00
2023-04-22T00:14:22.852Z,1094.00
2023-04-22T00:15:22.819Z,1085.00
2023-04-22T00:16:23.883Z,1082.00
2023-04-22T00:17:22.854Z,1087.00
2023-04-22T00:18:22.813Z,1073.00
2023-04-22T00:19:23.835Z,1094.00
2023-04-22T00:20:23.849Z,1075.00
2023-04-22T00:21:22.834Z,1079.00
2023-04-22T00:22:22.817Z,1073.00
2023-04-22T00:23:23.797Z,1076.00
2023-04-22T00:24:23.804Z,1071.00
2023-04-22T00:25:23.847Z,1071.00
2023-04-22T00:26:23.786Z,1079.00
2023-04-22T00:27:22.807Z,1070.00
2023-04-22T00:28:23.845Z,1077.00
2023-04-22T00:29:23.812Z,1073.00
2023-04-22T00:30:23.798Z,1063.00
2023-04-22T00:31:22.900Z,1066.00
2023-04-22T00:32:23.857Z,1062.00
2023-04-22T00:33:23.815Z,1071.00
2023-04-22T00:34:23.801Z,1081.00
2023-04-22T00:35:22.791Z,1067.00
2023-04-22T00:36:22.838Z,1063.00
2023-04-22T00:37:22.756Z,1069.00
2023-04-22T00:38:22.755Z,1067.00
2023-04-22T00:39:22.768Z,1073.00
2023-04-22T00:40:22.789Z,1070.00
2023-04-22T00:41:23.774Z,1071.00
2023-04-22T00:42:22.779Z,1077.00
2023-04-22T00:43:23.815Z,1067.00
2023-04-22T00:44:22.800Z,1070.00
2023-04-22T00:45:22.749Z,1064.00
2023-04-22T00:46:23.789Z,1071.00
2023-04-22T00:47:23.774Z,1061.00
2023-04-22T00:48:24.354Z,1062.00
2023-04-22T00:49:23.755Z,1068.00
2023-04-22T00:50:23.750Z,1086.00
2023-04-22T00:51:23.745Z,1067.00
2023-04-22T00:52:23.742Z,1078.00
2023-04-22T00:53:22.736Z,1071.00
2023-04-22T00:54:23.764Z,1058.00
2023-04-22T00:55:23.716Z,1068.00
2023-04-22T00:56:23.705Z,1060.00
2023-04-22T00:57:23.694Z,1061.00
2023-04-22T00:58:22.715Z,1062.00
2023-04-22T00:59:22.732Z,1060.00
2023-04-22T01:00:23.687Z,1056.00
2023-04-22T01:01:22.755Z,1053.00
2023-04-22T01:02:23.760Z,1058.00
2023-04-22T01:03:22.939Z,1062.00
2023-04-22T01:04:22.808Z,1055.00
2023-04-22T01:05:23.663Z,1061.00
2023-04-22T01:06:22.630Z,1059.00
2023-04-22T01:07:23.651Z,1056.00
2023-04-22T01:08:23.648Z,1044.00
2023-04-22T01:09:23.632Z,1043.00
2023-04-22T01:10:22.646Z,1054.00
2023-04-22T01:11:23.626Z,1044.00
2023-04-22T01:12:23.598Z,1054.00
2023-04-22T01:13:23.677Z,1046.00
2023-04-22T01:14:23.608Z,1055.00
2023-04-22T01:15:23.628Z,1051.00
2023-04-22T01:16:22.677Z,1058.00
2023-04-22T01:17:22.658Z,1048.00
2023-04-22T01:18:24.054Z,1035.00
2023-04-22T01:19:22.621Z,1041.00
2023-04-22T01:20:23.578Z,1038.00
2023-04-22T01:21:23.566Z,1048.00
2023-04-22T01:22:22.543Z,1042.00
2023-04-22T01:23:23.571Z,1031.00
2023-04-22T01:24:22.592Z,1035.00
2023-04-22T01:25:23.567Z,1049.00
2023-04-22T01:26:22.527Z,1031.00
2023-04-22T01:27:22.544Z,1045.00
2023-04-22T01:28:22.538Z,1052.00
2023-04-22T01:29:23.524Z,1043.00
2023-04-22T01:30:23.510Z,1045.00
2023-04-22T01:31:22.561Z,1036.00
2023-04-22T01:32:23.738Z,1045.00
2023-04-22T01:33:22.498Z,1038.00
2023-04-22T01:34:23.504Z,1035.00
2023-04-22T01:35:22.478Z,1026.00
2023-04-22T01:36:22.480Z,1039.00
2023-04-22T01:37:22.461Z,1040.00
2023-04-22T01:38:23.454Z,1039.00
2023-04-22T01:39:23.471Z,1024.00
2023-04-22T01:40:22.439Z,1033.00
2023-04-22T01:41:22.430Z,1028.00
2023-04-22T01:42:22.447Z,1033.00
2023-04-22T01:43:23.422Z,1034.00
2023-04-22T01:44:22.407Z,1026.00
2023-04-22T01:45:22.427Z,1041.00
2023-04-22T01:46:22.487Z,1024.00
2023-04-22T01:47:22.432Z,1031.00
2023-04-22T01:48:22.476Z,1043.00
2023-04-22T01:49:22.397Z,1036.00
2023-04-22T01:50:22.379Z,1028.00
2023-04-22T01:51:22.368Z,1033.00
2023-04-22T01:52:23.363Z,1026.00
2023-04-22T01:53:22.398Z,1020.00
2023-04-22T01:54:22.362Z,1023.00
2023-04-22T01:55:22.343Z,1022.00
2023-04-22T01:56:23.370Z,1025.00
2023-04-22T01:57:22.349Z,1028.00
2023-04-22T01:58:22.329Z,1013.00
2023-04-22T01:59:22.324Z,1030.00
2023-04-22T02:00:23.873Z,1022.00
2023-04-22T02:01:22.399Z,1015.00
2023-04-22T02:02:23.375Z,1023.00
2023-04-22T02:03:22.491Z,1023.00
2023-04-22T02:04:23.333Z,1023.00
2023-04-22T02:05:23.294Z,1024.00
2023-04-22T02:06:23.328Z,1016.00
2023-04-22T02:07:23.256Z,1014.00
2023-04-22T02:08:23.241Z,1017.00
2023-04-22T02:09:22.302Z,1015.00
2023-04-22T02:10:23.238Z,1013.00
2023-04-22T02:11:23.282Z,1024.00
2023-04-22T02:12:23.270Z,1018.00
2023-04-22T02:13:23.206Z,1021.00
2023-04-22T02:14:22.229Z,1011.00
2023-04-22T02:15:22.229Z,1017.00
2023-04-22T02:16:23.356Z,1013.00
2023-04-22T02:17:23.200Z,1010.00
2023-04-22T02:18:22.176Z,1014.00
2023-04-22T02:19:22.228Z,1011.00
2023-04-22T02:20:22.210Z,1002.00
2023-04-22T02:21:23.160Z,1008.00
2023-04-22T02:22:22.242Z,1003.00
2023-04-22T02:23:23.149Z,1002.00
2023-04-22T02:24:23.158Z,1005.00
2023-04-22T02:25:22.151Z,1018.00
2023-04-22T02:26:22.140Z,1005.00
2023-04-22T02:27:23.146Z,1008.00
2023-04-22T02:28:22.153Z,998.00
2023-04-22T02:29:23.131Z,1003.00
2023-04-22T02:30:22.131Z,1005.00
2023-04-22T02:31:23.169Z,1004.00
2023-04-22T02:32:22.123Z,999.00
2023-04-22T02:33:22.090Z,992.00
2023-04-22T02:34:23.120Z,996.00
2023-04-22T02:35:23.113Z,999.00
2023-04-22T02:36:22.073Z,1001.00
2023-04-22T02:37:23.055Z,1000.00
2023-04-22T02:38:23.071Z,999.00
2023-04-22T02:39:22.087Z,1018.00
2023-04-22T02:40:22.106Z,986.00
2023-04-22T02:41:23.155Z,1004.00
2023-04-22T02:42:23.156Z,1000.00
2023-04-22T02:43:23.184Z,1005.00
2023-04-22T02:44:23.234Z,997.00
2023-04-22T02:45:23.220Z,995.00
2023-04-22T02:46:23.273Z,998.00
2023-04-22T02:47:23.340Z,1013.00
2023-04-22T02:48:23.277Z,999.00
2023-04-22T02:49:22.369Z,986.00
2023-04-22T02:50:22.313Z,991.00
2023-04-22T02:51:22.355Z,1001.00
2023-04-22T02:52:22.374Z,1003.00
2023-04-22T02:53:22.381Z,1000.00
2023-04-22T02:54:22.433Z,989.00
2023-04-22T02:55:22.428Z,999.00
2023-04-22T02:56:22.520Z,989.00
2023-04-22T02:57:23.476Z,994.00
2023-04-22T02:58:22.486Z,973.00
2023-04-22T02:59:23.525Z,985.00
2023-04-22T03:00:23.562Z,984.00
2023-04-22T03:01:22.677Z,996.00
2023-04-22T03:02:23.685Z,998.00
2023-04-22T03:03:23.828Z,1000.00
2023-04-22T03:04:23.816Z,998.00
2023-04-22T03:05:22.663Z,986.00
2023-04-22T03:06:23.735Z,997.00
2023-04-22T03:07:22.742Z,993.00
2023-04-22T03:08:23.730Z,980.00
2023-04-22T03:09:22.840Z,977.00
2023-04-22T03:10:22.820Z,985.00
2023-04-22T03:11:22.832Z,985.00
2023-04-22T03:12:22.833Z,984.00
2023-04-22T03:13:22.879Z,972.00
2023-04-22T03:14:23.912Z,970.00
2023-04-22T03:15:23.955Z,975.00
2023-04-22T03:16:24.027Z,982.00
2023-04-22T03:17:23.996Z,991.00
2023-04-22T03:18:24.012Z,979.00
2023-04-22T03:19:23.021Z,984.00
2023-04-22T03:20:23.038Z,984.00
2023-04-22T03:21:23.119Z,975.00
2023-04-22T03:22:24.118Z,978.00
2023-04-22T03:23:23.183Z,977.00
2023-04-22T03:24:24.194Z,968.00
2023-04-22T03:25:23.181Z,979.00
2023-04-22T03:26:23.210Z,973.00
2023-04-22T03:27:24.282Z,977.00
2023-04-22T03:28:24.289Z,964.00
2023-04-22T03:29:24.295Z,977.00
2023-04-22T03:30:23.354Z,982.00
2023-04-22T03:31:24.362Z,963.00
2023-04-22T03:32:23.580Z,963.00
2023-04-22T03:33:24.412Z,974.00
2023-04-22T03:34:24.473Z,969.00
2023-04-22T03:35:24.461Z,968.00
2023-04-22T03:36:23.498Z,963.00
2023-04-22T03:37:23.529Z,970.00
2023-04-22T03:38:23.559Z,967.00
2023-04-22T03:39:23.593Z,960.00
2023-04-22T03:40:23.631Z,962.00
2023-04-22T03:41:24.638Z,982.00
2023-04-22T03:42:24.653Z,977.00
2023-04-22T03:43:24.685Z,956.00
2023-04-22T03:44:24.715Z,962.00
2023-04-22T03:45:24.734Z,965.00
2023-04-22T03:46:24.867Z,948.00
2023-04-22T03:47:24.820Z,964.00
2023-04-22T03:48:23.834Z,965.00
2023-04-22T03:49:24.878Z,958.00
2023-04-22T03:50:24.882Z,957.00
2023-04-22T03:51:24.978Z,952.00
2023-04-22T03:52:23.966Z,964.00
2023-04-22T03:53:24.960Z,949.00
2023-04-22T03:54:24.992Z,952.00
2023-04-22T03:55:24.079Z,957.00
2023-04-22T03:56:24.075Z,957.00
2023-04-22T03:57:24.162Z,937.00
2023-04-22T03:58:24.234Z,964.00
2023-04-22T03:59:24.213Z,950.00
2023-04-22T04:00:25.265Z,945.00
2023-04-22T04:01:25.288Z,946.00
2023-04-22T04:02:24.490Z,954.00
2023-04-22T04:03:24.603Z,949.00
2023-04-22T04:04:24.795Z,951.00
2023-04-22T04:05:24.543Z,944.00
2023-04-22T04:06:24.517Z,948.00
2023-04-22T04:07:25.559Z,950.00
2023-04-22T04:08:24.613Z,950.00
2023-04-22T04:09:25.660Z,949.00
2023-04-22T04:10:24.762Z,956.00
2023-04-22T04:11:24.772Z,943.00
2023-04-22T04:12:24.814Z,944.00
2023-04-22T04:13:24.830Z,934.00
2023-04-22T04:14:25.882Z,937.00
2023-04-22T04:15:25.941Z,940.00
2023-04-22T04:16:24.990Z,943.00
2023-04-22T04:17:25.079Z,945.00
2023-04-22T04:18:26.028Z,943.00
2023-04-22T04:19:25.067Z,930.00
2023-04-22T04:20:25.121Z,942.00
2023-04-22T04:21:26.181Z,940.00
2023-04-22T04:22:26.216Z,949.00
2023-04-22T04:23:25.276Z,938.00
2023-04-22T04:24:26.324Z,926.00
2023-04-22T04:25:25.367Z,934.00
2023-04-22T04:26:25.425Z,943.00
2023-04-22T04:27:25.498Z,924.00
2023-04-22T04:28:26.537Z,924.00
2023-04-22T04:29:26.565Z,939.00
2023-04-22T04:30:26.601Z,937.00
2023-04-22T04:31:25.688Z,939.00
2023-04-22T04:32:25.715Z,923.00
2023-04-22T04:33:25.817Z,934.00
2023-04-22T04:34:26.814Z,934.00
2023-04-22T04:35:26.869Z,933.00
2023-04-22T04:36:25.905Z,924.00
2023-04-22T04:37:25.958Z,927.00
2023-04-22T04:38:27.005Z,921.00
2023-04-22T04:39:26.055Z,932.00
2023-04-22T04:40:27.153Z,910.00
2023-04-22T04:41:27.172Z,937.00
2023-04-22T04:42:26.243Z,934.00
2023-04-22T04:43:26.428Z,924.00
2023-04-22T04:44:27.355Z,932.00
2023-04-22T04:45:27.399Z,916.00
2023-04-22T04:46:27.572Z,929.00
2023-04-22T04:47:27.529Z,933.00
2023-04-22T04:48:26.553Z,929.00
2023-04-22T04:49:26.592Z,919.00
2023-04-22T04:50:27.629Z,920.00
2023-04-22T04:51:27.716Z,922.00
2023-04-22T04:52:27.715Z,916.00
2023-04-22T04:53:26.752Z,911.00
2023-04-22T04:54:27.798Z,914.00
2023-04-22T04:55:26.843Z,924.00
2023-04-22T04:56:26.887Z,928.00
2023-04-22T04:57:27.963Z,915.00
2023-04-22T04:58:26.966Z,914.00
2023-04-22T04:59:28.030Z,909.00
2023-04-22T05:00:28.046Z,902.00
2023-04-22T05:01:27.137Z,901.00
2023-04-22T05:02:28.221Z,906.00
2023-04-22T05:03:27.313Z,915.00
2023-04-22T05:04:28.393Z,904.00
2023-04-22T05:05:28.278Z,909.00
2023-04-22T05:06:28.321Z,905.00
2023-04-22T05:07:27.347Z,910.00
2023-04-22T05:08:27.388Z,905.00
2023-04-22T05:09:28.483Z,908.00
2023-04-22T05:10:28.483Z,915.00
2023-04-22T05:11:28.530Z,902.00
2023-04-22T05:12:27.593Z,902.00
2023-04-22T05:13:27.655Z,907.00
2023-04-22T05:14:28.643Z,904.00
2023-04-22T05:15:27.739Z,916.00
2023-04-22T05:16:27.792Z,916.00
2023-04-22T05:17:27.789Z,903.00
2023-04-22T05:18:27.816Z,899.00
2023-04-22T05:19:28.883Z,911.00
2023-04-22T05:20:27.954Z,909.00
2023-04-22T05:21:29.045Z,898.00
2023-04-22T05:22:28.055Z,908.00
2023-04-22T05:23:28.117Z,898.00
2023-04-22T05:24:29.192Z,892.00
2023-04-22T05:25:28.249Z,889.00
2023-04-22T05:26:28.294Z,891.00
2023-04-22T05:27:29.374Z,895.00
2023-04-22T05:28:29.436Z,897.00
2023-04-22T05:29:28.498Z,915.00
2023-04-22T05:30:28.542Z,899.00
2023-04-22T05:31:29.628Z,891.00
2023-04-22T05:32:29.671Z,892.00
2023-04-22T05:33:29.739Z,892.00
2023-04-22T05:34:29.771Z,891.00
2023-04-22T05:35:28.826Z,894.00
2023-04-22T05:36:31.135Z,900.00
2023-04-22T05:37:30.013Z,885.00
2023-04-22T05:38:30.040Z,894.00
2023-04-22T05:39:29.132Z,903.00
2023-04-22T05:40:30.147Z,890.00
2023-04-22T05:41:30.222Z,892.00
2023-04-22T05:42:29.283Z,887.00
2023-04-22T05:43:29.316Z,899.00
2023-04-22T05:44:30.355Z,893.00
2023-04-22T05:45:29.448Z,883.00
2023-04-22T05:46:30.558Z,885.00
2023-04-22T05:47:30.582Z,893.00
2023-04-22T05:48:30.571Z,877.00
2023-04-22T05:49:29.607Z,889.00
2023-04-22T05:50:30.700Z,881.00
2023-04-22T05:51:29.708Z,891.00
2023-04-22T05:52:29.722Z,881.00
2023-04-22T05:53:30.798Z,879.00
2023-04-22T05:54:30.832Z,879.00
2023-04-22T05:55:30.877Z,875.00
2023-04-22T05:56:30.915Z,889.00
2023-04-22T05:57:31.015Z,873.00
2023-04-22T05:58:29.991Z,866.00
2023-04-22T05:59:31.040Z,874.00
2023-04-22T06:00:30.127Z,871.00
2023-04-22T06:01:31.123Z,878.00
2023-04-22T06:02:31.275Z,881.00
2023-04-22T06:03:30.458Z,873.00
2023-04-22T06:04:32.998Z,865.00
2023-04-22T06:05:30.304Z,866.00
2023-04-22T06:06:30.265Z,868.00
2023-04-22T06:07:31.215Z,868.00
2023-04-22T06:08:30.236Z,877.00
2023-04-22T06:09:31.197Z,877.00
2023-04-22T06:10:30.279Z,870.00
2023-04-22T06:11:31.225Z,876.00
2023-04-22T06:12:31.204Z,881.00
2023-04-22T06:13:31.201Z,874.00
2023-04-22T06:14:30.178Z,875.00
2023-04-22T06:15:31.267Z,878.00
2023-04-22T06:16:30.160Z,872.00
2023-04-22T06:17:31.152Z,873.00
2023-04-22T06:18:31.138Z,868.00
2023-04-22T06:19:31.148Z,877.00
2023-04-22T06:20:31.145Z,869.00
2023-04-22T06:21:31.115Z,862.00
2023-04-22T06:22:30.129Z,862.00
2023-04-22T06:23:30.246Z,881.00
2023-04-22T06:24:30.102Z,867.00
2023-04-22T06:25:30.104Z,864.00
2023-04-22T06:26:31.135Z,860.00
2023-04-22T06:27:30.088Z,865.00
2023-04-22T06:28:30.073Z,871.00
2023-04-22T06:29:30.098Z,873.00
2023-04-22T06:30:30.061Z,861.00
2023-04-22T06:31:30.170Z,870.00
2023-04-22T06:32:31.196Z,859.00
2023-04-22T06:33:31.034Z,869.00
2023-04-22T06:34:30.111Z,854.00
2023-04-22T06:35:30.130Z,865.00
2023-04-22T06:36:31.102Z,855.00
2023-04-22T06:37:31.136Z,866.00
2023-04-22T06:38:31.158Z,857.00
2023-04-22T06:39:31.224Z,867.00
2023-04-22T06:40:31.203Z,864.00
2023-04-22T06:41:30.233Z,862.00
2023-04-22T06:42:31.253Z,852.00
2023-04-22T06:43:31.296Z,850.00
2023-04-22T06:44:31.317Z,869.00
2023-04-22T06:45:30.349Z,867.00
2023-04-22T06:46:31.404Z,850.00
2023-04-22T06:47:30.410Z,859.00
2023-04-22T06:48:30.395Z,845.00
2023-04-22T06:49:31.403Z,850.00
2023-04-22T06:50:30.425Z,861.00
2023-04-22T06:51:31.470Z,848.00
2023-04-22T06:52:31.456Z,859.00
2023-04-22T06:53:31.526Z,840.00
2023-04-22T06:54:31.467Z,848.00
2023-04-22T06:55:30.480Z,848.00
2023-04-22T06:56:30.502Z,854.00
2023-04-22T06:57:31.518Z,859.00
2023-04-22T06:58:30.545Z,842.00
2023-04-22T06:59:31.567Z,841.00
2023-04-22T07:00:30.568Z,853.00
2023-04-22T07:01:30.629Z,841.00
2023-04-22T07:02:31.680Z,852.00
2023-04-22T07:03:31.885Z,848.00
2023-04-22T07:04:30.639Z,852.00
2023-04-22T07:05:31.611Z,850.00
2023-04-22T07:06:30.595Z,850.00
2023-04-22T07:07:30.617Z,860.00
2023-04-22T07:08:31.597Z,841.00
2023-04-22T07:09:30.580Z,839.00
2023-04-22T07:10:30.608Z,844.00
2023-04-22T07:11:31.630Z,850.00
2023-04-22T07:12:31.604Z,849.00
2023-04-22T07:13:31.607Z,863.00
2023-04-22T07:14:30.581Z,850.00
2023-04-22T07:15:31.588Z,847.00
2023-04-22T07:16:31.690Z,846.00
2023-04-22T07:17:31.605Z,845.00
2023-04-22T07:18:31.583Z,845.00
2023-04-22T07:19:31.179Z,856.00
2023-04-22T07:20:30.586Z,849.00
2023-04-22T07:21:31.578Z,854.00
2023-04-22T07:22:31.559Z,841.00
2023-04-22T07:23:30.573Z,846.00
2023-04-22T07:24:31.552Z,832.00
2023-04-22T07:25:30.544Z,851.00
2023-04-22T07:26:30.551Z,852.00
2023-04-22T07:27:31.530Z,855.00
2023-04-22T07:28:30.542Z,850.00
2023-04-22T07:29:30.540Z,846.00
2023-04-22T07:30:31.529Z,850.00
2023-04-22T07:31:31.575Z,841.00
2023-04-22T07:32:31.538Z,844.00
2023-04-22T07:33:30.530Z,840.00
2023-04-22T07:34:31.513Z,844.00
2023-04-22T07:35:31.526Z,834.00
2023-04-22T07:36:30.521Z,862.00
2023-04-22T07:37:30.511Z,830.00
2023-04-22T07:38:31.514Z,827.00
2023-04-22T07:39:30.539Z,834.00
2023-04-22T07:40:31.502Z,826.00
2023-04-22T07:41:31.509Z,848.00
2023-04-22T07:42:31.496Z,840.00
2023-04-22T07:43:30.504Z,840.00
2023-04-22T07:44:31.472Z,855.00
2023-04-22T07:45:31.510Z,835.00
2023-04-22T07:46:30.481Z,837.00
2023-04-22T07:47:30.520Z,844.00
2023-04-22T07:48:31.481Z,850.00
2023-04-22T07:49:30.464Z,841.00
2023-04-22T07:50:30.500Z,849.00
2023-04-22T07:51:30.508Z,843.00
2023-04-22T07:52:31.491Z,862.00
2023-04-22T07:53:31.478Z,845.00
2023-04-22T07:54:31.478Z,854.00
2023-04-22T07:55:30.555Z,856.00
2023-04-22T07:56:31.478Z,854.00
2023-04-22T07:57:31.494Z,839.00
2023-04-22T07:58:30.532Z,871.00
2023-04-22T07:59:30.574Z,861.00
2023-04-22T08:00:30.650Z,861.00
2023-04-22T08:01:31.717Z,854.00
2023-04-22T08:02:31.830Z,849.00
2023-04-22T08:03:30.952Z,851.00
2023-04-22T08:04:32.041Z,849.00
2023-04-22T08:05:31.924Z,853.00
2023-04-22T08:06:31.963Z,851.00
2023-04-22T08:07:33.455Z,840.00
2023-04-22T08:08:32.048Z,848.00
2023-04-22T08:09:31.034Z,867.00
2023-04-22T08:10:31.025Z,857.00
2023-04-22T08:11:31.041Z,861.00
2023-04-22T08:12:31.012Z,851.00
2023-04-22T08:13:31.009Z,857.00
2023-04-22T08:14:31.040Z,866.00
2023-04-22T08:15:31.972Z,856.00
2023-04-22T08:16:30.993Z,837.00
2023-04-22T08:17:30.973Z,844.00
2023-04-22T08:18:31.966Z,862.00
2023-04-22T08:19:31.956Z,852.00
2023-04-22T08:20:30.958Z,854.00
2023-04-22T08:21:31.957Z,842.00
2023-04-22T08:22:31.940Z,838.00
2023-04-22T08:23:31.941Z,840.00
2023-04-22T08:24:31.912Z,844.00
2023-04-22T08:25:30.932Z,841.00
2023-04-22T08:26:31.913Z,833.00
2023-04-22T08:27:31.929Z,825.00
2023-04-22T08:28:31.895Z,829.00
2023-04-22T08:29:31.883Z,836.00
2023-04-22T08:30:31.895Z,821.00
2023-04-22T08:31:31.988Z,822.00
2023-04-22T08:32:31.922Z,834.00
2023-04-22T08:33:30.901Z,827.00
2023-04-22T08:34:31.957Z,824.00
2023-04-22T08:35:32.036Z,807.00
2023-04-22T08:36:31.076Z,827.00
2023-04-22T08:37:31.150Z,821.00
2023-04-22T08:38:31.241Z,827.00
2023-04-22T08:39:32.258Z,822.00
2023-04-22T08:40:32.345Z,817.00
2023-04-22T08:41:31.385Z,819.00
2023-04-22T08:42:31.452Z,820.00
2023-04-22T08:43:32.525Z,814.00
2023-04-22T08:44:31.598Z,822.00
2023-04-22T08:45:31.596Z,811.00
2023-04-22T08:46:31.702Z,822.00
2023-04-22T08:47:32.759Z,824.00
2023-04-22T08:48:32.788Z,804.00
2023-04-22T08:49:31.826Z,816.00
2023-04-22T08:50:32.924Z,808.00
2023-04-22T08:51:31.955Z,810.00
2023-04-22T08:52:31.998Z,809.00
2023-04-22T08:53:33.053Z,797.00
2023-04-22T08:54:32.111Z,808.00
2023-04-22T08:55:32.191Z,796.00
2023-04-22T08:56:32.273Z,807.00
2023-04-22T08:57:32.302Z,814.00
2023-04-22T08:58:33.084Z,796.00
2023-04-22T08:59:32.420Z,810.00
2023-04-22T09:00:32.451Z,797.00
2023-04-22T09:01:32.531Z,790.00
2023-04-22T09:02:32.624Z,805.00
2023-04-22T09:03:33.703Z,806.00
2023-04-22T09:04:33.735Z,794.00
2023-04-22T09:05:32.786Z,802.00
2023-04-22T09:06:33.797Z,806.00
2023-04-22T09:07:32.832Z,797.00
2023-04-22T09:08:33.882Z,800.00
2023-04-22T09:09:32.929Z,795.00
2023-04-22T09:10:34.316Z,792.00
2023-04-22T09:11:34.226Z,795.00
2023-04-22T09:12:34.129Z,802.00
2023-04-22T09:13:33.160Z,797.00
2023-04-22T09:14:34.224Z,798.00
2023-04-22T09:15:33.281Z,799.00
2023-04-22T09:16:33.361Z,793.00
2023-04-22T09:17:33.516Z,804.00
2023-04-22T09:18:34.399Z,789.00
2023-04-22T09:19:33.470Z,796.00
2023-04-22T09:20:33.563Z,805.00
2023-04-22T09:21:34.564Z,805.00
2023-04-22T09:22:33.606Z,793.00
2023-04-22T09:23:33.675Z,799.00
2023-04-22T09:24:34.722Z,802.00
2023-04-22T09:25:34.812Z,803.00
2023-04-22T09:26:34.841Z,796.00
2023-04-22T09:27:34.880Z,800.00
2023-04-22T09:28:33.939Z,791.00
2023-04-22T09:29:33.958Z,803.00
2023-04-22T09:30:35.070Z,786.00
2023-04-22T09:31:35.109Z,803.00
2023-04-22T09:32:34.091Z,793.00
2023-04-22T09:33:34.148Z,798.00
2023-04-22T09:34:34.174Z,804.00
2023-04-22T09:35:35.218Z,790.00
2023-04-22T09:36:34.295Z,790.00
2023-04-22T09:37:48.472Z,793.00
2023-04-22T09:38:35.296Z,794.00
2023-04-22T09:39:35.271Z,798.00
2023-04-22T09:40:35.281Z,800.00
2023-04-22T09:41:34.261Z,797.00
2023-04-22T09:42:34.287Z,798.00
2023-04-22T09:43:34.306Z,815.00
2023-04-22T09:44:35.260Z,798.00
2023-04-22T09:45:35.295Z,794.00
2023-04-22T09:46:35.266Z,802.00
2023-04-22T09:47:35.289Z,798.00
2023-04-22T09:48:34.238Z,794.00
2023-04-22T09:49:35.214Z,789.00
2023-04-22T09:50:34.203Z,800.00
2023-04-22T09:51:34.212Z,788.00
2023-04-22T09:52:35.216Z,795.00
2023-04-22T09:53:34.216Z,791.00
2023-04-22T09:54:34.199Z,792.00
2023-04-22T09:55:35.178Z,790.00
2023-04-22T09:56:35.220Z,798.00
2023-04-22T09:57:35.168Z,787.00
2023-04-22T09:58:35.165Z,785.00
2023-04-22T09:59:34.184Z,784.00
2023-04-22T10:00:34.154Z,794.00
2023-04-22T10:01:35.164Z,792.00
2023-04-22T10:02:35.278Z,789.00
2023-04-22T10:03:35.241Z,784.00
2023-04-22T10:04:34.266Z,789.00
2023-04-22T10:05:35.107Z,785.00
2023-04-22T10:06:35.099Z,767.00
2023-04-22T10:07:34.133Z,774.00
2023-04-22T10:08:35.088Z,783.00
2023-04-22T10:09:35.093Z,785.00
2023-04-22T10:10:34.084Z,788.00
2023-04-22T10:11:34.080Z,777.00
2023-04-22T10:12:35.954Z,790.00
2023-04-22T10:13:35.087Z,789.00
2023-04-22T10:14:35.114Z,787.00
2023-04-22T10:15:34.223Z,785.00
2023-04-22T10:16:35.245Z,776.00
2023-04-22T10:17:35.540Z,791.00
2023-04-22T10:18:35.276Z,789.00
2023-04-22T10:19:34.298Z,795.00
2023-04-22T10:20:35.314Z,780.00
2023-04-22T10:21:35.345Z,784.00
2023-04-22T10:22:35.386Z,766.00
2023-04-22T10:23:35.411Z,779.00
2023-04-22T10:24:35.469Z,790.00
2023-04-22T10:25:35.507Z,778.00
2023-04-22T10:26:34.589Z,769.00
2023-04-22T10:27:34.549Z,791.00
2023-04-22T10:28:35.569Z,792.00
2023-04-22T10:29:35.599Z,782.00
2023-04-22T10:30:34.646Z,777.00
2023-04-22T10:31:34.793Z,791.00
2023-04-22T10:32:35.723Z,783.00
2023-04-22T10:33:34.723Z,786.00
2023-04-22T10:34:35.768Z,786.00
2023-04-22T10:35:35.776Z,784.00
2023-04-22T10:36:35.816Z,790.00
2023-04-22T10:37:35.860Z,777.00
2023-04-22T10:38:34.876Z,786.00
2023-04-22T10:39:35.880Z,786.00
2023-04-22T10:40:35.903Z,776.00
2023-04-22T10:41:35.946Z,796.00
2023-04-22T10:42:35.971Z,788.00
2023-04-22T10:43:36.005Z,785.00
2023-04-22T10:44:36.023Z,787.00
2023-04-22T10:45:35.284Z,773.00
2023-04-22T10:46:36.160Z,789.00
2023-04-22T10:47:36.167Z,771.00
2023-04-22T10:48:35.135Z,782.00
2023-04-22T10:49:35.294Z,788.00
2023-04-22T10:50:35.219Z,779.00
2023-04-22T10:51:36.232Z,783.00
2023-04-22T10:52:36.242Z,786.00
2023-04-22T10:53:36.260Z,785.00
2023-04-22T10:54:35.274Z,792.00
2023-04-22T10:55:36.300Z,776.00
2023-04-22T10:56:39.043Z,768.00
2023-04-22T10:57:35.365Z,769.00
2023-04-22T10:58:36.417Z,775.00
2023-04-22T10:59:35.423Z,779.00
2023-04-22T11:00:51.749Z,787.00
2023-04-22T11:01:36.441Z,770.00
2023-04-22T11:02:36.543Z,775.00
2023-04-22T11:03:35.619Z,782.00
2023-04-22T11:04:35.588Z,787.00
2023-04-22T11:05:36.382Z,792.00
2023-04-22T11:06:36.400Z,777.00
2023-04-22T11:07:36.393Z,790.00
2023-04-22T11:08:36.383Z,788.00
2023-04-22T11:09:35.373Z,768.00
2023-04-22T11:10:36.361Z,778.00
2023-04-22T11:11:36.352Z,790.00
2023-04-22T11:12:36.374Z,782.00
2023-04-22T11:13:36.341Z,781.00
2023-04-22T11:14:36.341Z,774.00
2023-04-22T11:15:36.330Z,777.00
2023-04-22T11:16:36.375Z,784.00
2023-04-22T11:17:36.325Z,784.00
2023-04-22T11:18:36.329Z,794.00
2023-04-22T11:19:36.473Z,773.00
2023-04-22T11:20:36.293Z,766.00
2023-04-22T11:21:35.295Z,778.00
2023-04-22T11:22:35.304Z,774.00
2023-04-22T11:23:35.287Z,780.00
2023-04-22T11:24:35.273Z,779.00
2023-04-22T11:25:36.259Z,777.00
2023-04-22T11:26:35.380Z,785.00
2023-04-22T11:27:35.255Z,777.00
2023-04-22T11:28:35.242Z,782.00
2023-04-22T11:29:36.227Z,781.00
2023-04-22T11:30:36.262Z,782.00
2023-04-22T11:31:35.250Z,783.00
2023-04-22T11:32:36.224Z,767.00
2023-04-22T11:33:36.219Z,761.00
2023-04-22T11:34:35.231Z,771.00
2023-04-22T11:35:36.197Z,777.00
2023-04-22T11:36:36.179Z,786.00
2023-04-22T11:37:36.198Z,783.00
2023-04-22T11:38:35.224Z,780.00
2023-04-22T11:39:36.245Z,773.00
2023-04-22T11:40:38.529Z,770.00
2023-04-22T11:41:35.170Z,772.00
2023-04-22T11:42:36.163Z,774.00
2023-04-22T11:43:35.155Z,780.00
2023-04-22T11:44:35.148Z,775.00
2023-04-22T11:45:36.163Z,775.00
2023-04-22T11:46:35.150Z,779.00
2023-04-22T11:47:35.161Z,772.00
2023-04-22T11:48:36.110Z,771.00
2023-04-22T11:49:35.092Z,772.00
2023-04-22T11:50:35.104Z,768.00
2023-04-22T11:51:36.090Z,780.00
2023-04-22T11:52:35.105Z,774.00
2023-04-22T11:53:35.098Z,774.00
2023-04-22T11:54:36.108Z,777.00
2023-04-22T11:55:35.095Z,787.00
2023-04-22T11:56:36.134Z,776.00
2023-04-22T11:57:36.056Z,778.00
2023-04-22T11:58:36.076Z,761.00
2023-04-22T11:59:36.116Z,761.00
2023-04-22T12:00:35.056Z,784.00
2023-04-22T12:01:35.017Z,770.00
2023-04-22T12:02:36.162Z,776.00
2023-04-22T12:03:35.208Z,764.00
2023-04-22T12:04:35.998Z,763.00
2023-04-22T12:05:36.019Z,753.00
2023-04-22T12:06:34.986Z,750.00
2023-04-22T12:07:36.026Z,773.00
2023-04-22T12:08:35.998Z,762.00
2023-04-22T12:09:36.013Z,758.00
2023-04-22T12:10:36.086Z,758.00
2023-04-22T12:11:35.984Z,765.00
2023-04-22T12:12:36.005Z,764.00
2023-04-22T12:13:35.063Z,754.00
2023-04-22T12:14:36.052Z,763.00
2023-04-22T12:15:36.074Z,772.00
2023-04-22T12:16:35.100Z,754.00
2023-04-22T12:17:36.096Z,764.00
2023-04-22T12:18:36.101Z,760.00
2023-04-22T12:19:36.098Z,762.00
2023-04-22T12:20:36.109Z,764.00
2023-04-22T12:21:36.116Z,768.00
2023-04-22T12:22:35.124Z,776.00
2023-04-22T12:23:35.130Z,763.00